createdAt,value
2017-10-25T00:01:02.166Z,2.90
2017-10-25T00:03:28.395Z,3.25
2017-10-25T00:05:54.735Z,4.60
2017-10-25T00:08:20.952Z,2.12
2017-10-25T00:10:47.193Z,2.05
2017-10-25T00:13:13.425Z,2.87
2017-10-25T00:15:39.662Z,2.78
2017-10-25T00:18:05.975Z,2.80
2017-10-25T00:20:32.227Z,1.40
2017-10-25T00:22:58.431Z,2.00
2017-10-25T00:25:24.684Z,2.67
2017-10-25T00:27:50.910Z,1.73
2017-10-25T00:30:17.248Z,2.55
2017-10-25T00:32:43.467Z,2.55
2017-10-25T00:35:09.706Z,1.33
2017-10-25T00:37:35.915Z,2.03
2017-10-25T00:40:02.184Z,2.30
2017-10-25T00:42:28.492Z,2.17
2017-10-25T00:44:54.734Z,1.83
2017-10-25T00:47:20.959Z,2.72
2017-10-25T00:49:47.171Z,1.70
2017-10-25T00:52:13.409Z,1.98
2017-10-25T00:54:39.731Z,1.77
2017-10-25T00:57:05.966Z,2.70
2017-10-25T00:59:32.208Z,3.20
2017-10-25T01:01:58.414Z,2.30
2017-10-25T01:04:24.693Z,1.90
2017-10-25T01:06:51.113Z,2.00
2017-10-25T01:09:17.320Z,2.90
2017-10-25T01:11:43.543Z,2.75
2017-10-25T01:14:09.770Z,1.95
2017-10-25T01:16:35.998Z,2.03
2017-10-25T01:19:02.344Z,2.95
2017-10-25T01:21:28.575Z,1.83
2017-10-25T01:23:54.813Z,2.37
2017-10-25T01:26:21.049Z,2.15
2017-10-25T01:28:47.273Z,1.90
2017-10-25T01:31:13.603Z,3.25
2017-10-25T01:33:39.820Z,2.12
2017-10-25T01:36:06.050Z,13.23
2017-10-25T01:38:32.285Z,3.35
2017-10-25T01:40:58.529Z,11.30
2017-10-25T01:43:24.855Z,1.73
2017-10-25T01:45:51.053Z,5.87
2017-10-25T01:48:17.309Z,3.30
2017-10-25T01:50:43.527Z,3.40
2017-10-25T01:53:09.756Z,6.90
2017-10-25T01:55:36.014Z,2.53
2017-10-25T01:58:02.218Z,3.40
2017-10-25T02:00:28.433Z,3.53
2017-10-25T02:02:54.674Z,3.42
2017-10-25T02:05:20.920Z,3.08
2017-10-25T02:07:47.353Z,2.33
2017-10-25T02:10:13.578Z,4.28
2017-10-25T02:12:39.818Z,3.00
2017-10-25T02:15:06.055Z,3.15
2017-10-25T02:17:32.272Z,2.15
2017-10-25T02:19:58.598Z,5.03
2017-10-25T02:22:24.833Z,4.53
2017-10-25T02:24:51.041Z,4.57
2017-10-25T02:27:17.290Z,1.95
2017-10-25T02:29:43.524Z,4.50
2017-10-25T02:32:09.856Z,2.58
2017-10-25T02:34:36.097Z,2.45
2017-10-25T02:37:02.310Z,1.58
2017-10-25T02:39:28.559Z,5.12
2017-10-25T02:41:54.774Z,2.00
2017-10-25T02:44:21.108Z,2.17
2017-10-25T02:46:47.340Z,3.05
2017-10-25T02:49:13.558Z,2.42
2017-10-25T02:51:39.817Z,4.50
2017-10-25T02:54:06.126Z,2.12
2017-10-25T02:56:32.465Z,11.38
2017-10-25T02:58:58.677Z,1.40
2017-10-25T03:01:24.909Z,8.77
2017-10-25T03:03:51.156Z,3.03
2017-10-25T03:06:17.396Z,4.97
2017-10-25T03:08:43.805Z,19.40
2017-10-25T03:11:10.068Z,1.85
2017-10-25T03:13:36.394Z,1.45
2017-10-25T03:16:02.606Z,2.00
2017-10-25T03:18:28.824Z,4.50
2017-10-25T03:20:55.157Z,2.67
2017-10-25T03:23:21.406Z,2.75
2017-10-25T03:25:47.626Z,1.50
2017-10-25T03:28:13.872Z,3.00
2017-10-25T03:30:40.082Z,6.72
2017-10-25T03:33:06.413Z,2.35
2017-10-25T03:35:32.653Z,1.90
2017-10-25T03:37:58.894Z,2.10
2017-10-25T03:40:25.295Z,2.83
2017-10-25T03:42:55.242Z,2.40
2017-10-25T03:45:21.556Z,1.77
2017-10-25T03:47:47.822Z,1.75
2017-10-25T03:50:14.130Z,2.85
2017-10-25T03:52:40.445Z,1.52
2017-10-25T03:55:06.707Z,6.57
2017-10-25T03:57:32.931Z,2.58
2017-10-25T03:59:59.274Z,3.28
2017-10-25T04:02:25.585Z,1.23
2017-10-25T04:04:51.801Z,1.60
2017-10-25T04:07:18.147Z,2.03
2017-10-25T04:09:44.380Z,2.90
2017-10-25T04:12:10.588Z,1.70
2017-10-25T04:14:36.835Z,5.12
2017-10-25T04:17:03.074Z,3.75
2017-10-25T04:19:29.378Z,1.80
2017-10-25T04:21:55.707Z,3.60
2017-10-25T04:24:21.963Z,4.18
2017-10-25T04:26:48.170Z,3.33
2017-10-25T04:29:14.508Z,4.07
2017-10-25T04:31:40.746Z,2.00
2017-10-25T04:34:06.984Z,4.68
2017-10-25T04:36:33.305Z,2.70
2017-10-25T04:38:59.528Z,3.65
2017-10-25T04:41:25.781Z,5.85
2017-10-25T04:43:52.112Z,6.32
2017-10-25T04:46:18.336Z,5.90
2017-10-25T04:48:44.561Z,4.10
2017-10-25T04:51:10.887Z,4.62
2017-10-25T04:53:37.101Z,3.28
2017-10-25T04:56:03.347Z,3.53
2017-10-25T04:58:29.688Z,5.78
2017-10-25T05:00:56.117Z,7.75
2017-10-25T05:03:22.363Z,2.67
2017-10-25T05:05:48.697Z,2.87
2017-10-25T05:08:14.901Z,10.45
2017-10-25T05:10:41.132Z,5.70
2017-10-25T05:13:07.376Z,4.57
2017-10-25T05:15:33.599Z,4.03
2017-10-25T05:17:59.931Z,3.30
2017-10-25T05:20:26.162Z,5.97
2017-10-25T05:22:52.403Z,6.05
2017-10-25T05:25:18.723Z,2.83
2017-10-25T05:27:44.953Z,1.60
2017-10-25T05:30:11.190Z,4.62
2017-10-25T05:32:37.515Z,9.77
2017-10-25T05:35:04.164Z,3.70
2017-10-25T05:37:30.376Z,6.25
2017-10-25T05:39:56.695Z,4.15
2017-10-25T05:42:22.943Z,10.07
2017-10-25T05:44:49.183Z,11.77
2017-10-25T05:47:15.554Z,4.50
2017-10-25T05:49:41.820Z,5.30
2017-10-25T05:52:08.070Z,13.23
2017-10-25T05:54:34.385Z,8.18
2017-10-25T05:57:00.629Z,6.43
2017-10-25T05:59:26.873Z,4.32
2017-10-25T06:01:53.189Z,5.95
2017-10-25T06:04:19.395Z,6.60
2017-10-25T06:06:45.963Z,9.93
2017-10-25T06:09:12.301Z,5.85
2017-10-25T06:11:38.520Z,7.97
2017-10-25T06:14:04.727Z,5.18
2017-10-25T06:16:31.091Z,10.95
2017-10-25T06:18:57.320Z,8.85
2017-10-25T06:21:23.548Z,9.10
2017-10-25T06:23:49.873Z,8.88
2017-10-25T06:26:16.110Z,4.95
2017-10-25T06:28:42.360Z,4.65
2017-10-25T06:31:08.669Z,12.93
2017-10-25T06:33:34.924Z,10.07
2017-10-25T06:36:01.223Z,7.47
2017-10-25T06:38:27.565Z,4.50
2017-10-25T06:40:54.005Z,5.45
2017-10-25T06:43:20.239Z,4.87
2017-10-25T06:45:46.537Z,5.03
2017-10-25T06:48:12.790Z,9.35
2017-10-25T06:50:39.131Z,11.57
2017-10-25T06:53:05.437Z,16.20
2017-10-25T06:55:31.688Z,7.03
2017-10-25T06:57:57.894Z,11.43
2017-10-25T07:00:24.416Z,9.15
2017-10-25T07:02:50.599Z,13.32
2017-10-25T07:05:16.888Z,6.25
2017-10-25T07:07:43.146Z,9.95
2017-10-25T07:10:09.360Z,9.95
2017-10-25T07:12:35.580Z,10.90
2017-10-25T07:15:01.813Z,25.62
2017-10-25T07:17:28.051Z,12.20
2017-10-25T07:19:54.278Z,13.73
2017-10-25T07:22:20.597Z,6.65
2017-10-25T07:24:46.861Z,12.73
2017-10-25T07:27:13.064Z,9.15
2017-10-25T07:29:39.412Z,18.87
2017-10-25T07:32:05.639Z,13.90
2017-10-25T07:34:31.866Z,15.35
2017-10-25T07:36:58.209Z,6.75
2017-10-25T07:39:24.421Z,16.35
2017-10-25T07:41:50.650Z,13.50
2017-10-25T07:44:16.970Z,10.13
2017-10-25T07:46:43.184Z,7.00
2017-10-25T07:49:09.362Z,15.63
2017-10-25T07:51:35.665Z,17.40
2017-10-25T07:54:01.931Z,7.55
2017-10-25T07:56:28.226Z,13.60
2017-10-25T07:58:54.478Z,8.57
2017-10-25T08:01:20.774Z,21.85
2017-10-25T08:03:47.026Z,10.80
2017-10-25T08:06:13.267Z,10.85
2017-10-25T08:08:39.592Z,19.50
2017-10-25T08:11:05.809Z,12.35
2017-10-25T08:13:32.016Z,12.55
2017-10-25T08:15:58.292Z,11.52
2017-10-25T08:18:24.513Z,7.78
2017-10-25T08:20:50.740Z,5.72
2017-10-25T08:23:17.075Z,8.93
2017-10-25T08:25:43.384Z,13.10
2017-10-25T08:28:09.622Z,6.68
2017-10-25T08:30:35.848Z,7.95
2017-10-25T08:33:02.073Z,9.68
2017-10-25T08:35:28.309Z,8.20
2017-10-25T08:37:54.504Z,9.50
2017-10-25T08:40:20.747Z,8.20
2017-10-25T08:42:47.023Z,18.30
2017-10-25T08:45:13.356Z,15.13
2017-10-25T08:47:39.573Z,5.55
2017-10-25T08:50:05.797Z,6.95
2017-10-25T08:52:32.046Z,10.82
2017-10-25T08:54:58.247Z,13.23
2017-10-25T08:57:24.510Z,12.55
2017-10-25T08:59:50.840Z,14.13
2017-10-25T09:02:17.069Z,19.90
2017-10-25T09:04:43.356Z,13.48
2017-10-25T09:07:09.643Z,9.88
2017-10-25T09:09:35.954Z,11.95
2017-10-25T09:12:02.167Z,10.02
2017-10-25T09:14:28.413Z,5.68
2017-10-25T09:16:54.760Z,15.98
2017-10-25T09:19:20.953Z,10.73
2017-10-25T09:21:47.237Z,15.43
2017-10-25T09:24:13.732Z,10.00
2017-10-25T09:26:39.961Z,25.55
2017-10-25T09:29:06.202Z,14.35
2017-10-25T09:31:32.436Z,17.73
2017-10-25T09:33:58.695Z,14.23
2017-10-25T09:36:24.987Z,14.82
2017-10-25T09:38:51.205Z,15.50
2017-10-25T09:41:17.462Z,15.90
2017-10-25T09:43:43.677Z,18.15
2017-10-25T09:46:09.916Z,20.15
2017-10-25T09:48:36.268Z,25.15
2017-10-25T09:51:02.581Z,19.05
2017-10-25T09:53:28.786Z,18.60
2017-10-25T09:55:55.165Z,14.82
2017-10-25T09:58:21.468Z,20.67
2017-10-25T10:00:47.805Z,6.53
2017-10-25T10:03:14.013Z,10.27
2017-10-25T10:05:40.356Z,7.18
2017-10-25T10:08:06.593Z,12.50
2017-10-25T10:10:32.854Z,11.82
2017-10-25T10:12:59.180Z,15.93
2017-10-25T10:15:25.606Z,14.35
2017-10-25T10:17:51.965Z,30.95
2017-10-25T10:20:18.277Z,15.00
2017-10-25T10:22:44.615Z,24.67
2017-10-25T10:25:10.999Z,18.77
2017-10-25T10:27:37.367Z,10.30
2017-10-25T10:30:03.585Z,16.37
2017-10-25T10:32:29.792Z,11.43
2017-10-25T10:34:56.054Z,8.10
2017-10-25T10:37:22.374Z,17.83
2017-10-25T10:39:48.599Z,7.12
2017-10-25T10:42:14.824Z,13.68
2017-10-25T10:44:41.060Z,13.75
2017-10-25T10:47:07.276Z,10.90
2017-10-25T10:49:34.268Z,11.75
2017-10-25T10:52:00.475Z,20.83
2017-10-25T10:54:26.715Z,15.57
2017-10-25T10:56:52.940Z,12.73
2017-10-25T10:59:19.237Z,13.77
2017-10-25T11:01:45.482Z,19.83
2017-10-25T11:04:11.713Z,17.20
2017-10-25T11:06:37.940Z,18.58
2017-10-25T11:09:04.138Z,13.55
2017-10-25T11:11:30.420Z,13.15
2017-10-25T11:13:56.728Z,14.45
2017-10-25T11:16:22.958Z,14.98
2017-10-25T11:18:49.186Z,14.40
2017-10-25T11:21:15.408Z,16.45
2017-10-25T11:23:41.651Z,14.95
2017-10-25T11:26:07.990Z,14.38
2017-10-25T11:28:34.207Z,16.92
2017-10-25T11:31:00.420Z,18.65
2017-10-25T11:33:26.674Z,16.30
2017-10-25T11:35:52.985Z,12.10
2017-10-25T11:38:19.223Z,8.63
2017-10-25T11:40:45.472Z,27.85
2017-10-25T11:43:11.703Z,16.60
2017-10-25T11:45:37.940Z,7.62
2017-10-25T11:48:04.153Z,9.70
2017-10-25T11:50:30.485Z,26.75
2017-10-25T11:52:56.707Z,22.92
2017-10-25T11:55:22.964Z,18.85
2017-10-25T11:57:49.193Z,12.43
2017-10-25T12:00:15.438Z,15.38
2017-10-25T12:02:41.766Z,23.48
2017-10-25T12:05:08.072Z,20.45
2017-10-25T12:07:35.420Z,20.67
2017-10-25T12:10:01.875Z,16.85
2017-10-25T12:12:28.110Z,15.38
2017-10-25T12:14:54.429Z,14.40
2017-10-25T12:17:20.666Z,17.90
2017-10-25T12:19:46.908Z,9.10
2017-10-25T12:22:13.208Z,15.85
2017-10-25T12:24:39.543Z,14.95
2017-10-25T12:27:05.745Z,20.67
2017-10-25T12:29:32.079Z,19.33
2017-10-25T12:31:58.357Z,13.62
2017-10-25T12:34:24.699Z,26.20
2017-10-25T12:36:51.031Z,16.60
2017-10-25T12:39:17.341Z,15.85
2017-10-25T12:41:43.585Z,12.65
2017-10-25T12:44:09.809Z,15.60
2017-10-25T12:46:36.054Z,14.27
2017-10-25T12:49:02.264Z,23.60
2017-10-25T12:51:28.476Z,12.68
2017-10-25T12:53:54.720Z,23.60
2017-10-25T12:56:20.967Z,22.00
2017-10-25T12:58:47.218Z,23.42
2017-10-25T13:01:13.450Z,12.98
2017-10-25T13:03:39.678Z,13.02
2017-10-25T13:06:05.968Z,21.80
2017-10-25T13:08:32.164Z,10.10
2017-10-25T13:10:58.451Z,21.52
2017-10-25T13:13:24.745Z,10.40
2017-10-25T13:15:50.988Z,17.42
2017-10-25T13:18:17.281Z,5.35
2017-10-25T13:20:43.578Z,14.05
2017-10-25T13:23:09.891Z,10.68
2017-10-25T13:25:36.273Z,14.07
2017-10-25T13:28:02.572Z,12.85
2017-10-25T13:30:28.959Z,16.92
2017-10-25T13:32:55.179Z,9.75
2017-10-25T13:35:22.197Z,7.28
2017-10-25T13:37:48.510Z,11.82
2017-10-25T13:40:14.827Z,17.25
2017-10-25T13:42:41.143Z,17.77
2017-10-25T13:45:07.410Z,19.45
2017-10-25T13:47:33.714Z,11.82
2017-10-25T13:49:59.962Z,14.20
2017-10-25T13:52:26.271Z,31.75
2017-10-25T13:54:52.610Z,14.13
2017-10-25T13:57:19.075Z,17.23
